Kimberley, Canada
Current Conditions -  °F | °C
As of 11:37 AM on Sunday 21 Dec 2014 (Local Time) from CYXC Reporting Station
Haze Haze  
Wind Chill: 26°   Ceiling: 300
Heat Index: 32°   Visibility: 1mi
Dew Point: 30°   Wind: 7mph
Humidity: 93%   Direction: 10°N
Pressure: 29.55"   Gusts: NA
Location:  49.68°N, 115.98°W
Report Text: CYXC 211837Z 01006KT 1SM BR BKN003 BKN060 00/M01 A2955 RMK SF5SC1 VIS S 15 SLP035
Loading
Personal Weather Stations






























Interactive Weather Map New forecast layout! Learn more

10-Day Weather Forecast

Advertisements
Track Severe Weather on mobile